OIAM  Mahshahr Airport

Add Bookmark

Iran

Status IATA
Operational MRX
Latitude Longitude
30° 33' 22" N 49° 9' 6" E
30.556200 49.151901
Local (DST + 5) UTC (GMT + 4)
Dec 20, 2014 03:00 Dec 20, 2014 11:30
Sunrise-Sunset Local UTC
Begin Civil Twilight 06:38 03:08
Sunrise 07:04 03:34
Sunset 05:17 13:47
End Civil Twilight 05:44 14:14

Current Weather

METAR Observed VFR
OIAM 201100Z 14012KT CAVOK 22/12 Q1018 Sat, Dec 20, 2014 @ 11:00 UTC
(30 Minutes ago)
Visual Flight Rules
Wind Visibility Clouds Conditions
140° at 12 knots (22 kph) 10 km or more
  • Clear skies
  • No significant weather
Temperatures Readings Precipitation
Current Temp 22°C (72°F)
Dewpoint 12°C (54°F)
Humidity 53%
Altimeter 30.06"Hg
Sea Level Pressure 1018mb
Field Elevation 13.12'
None Recorded

Additional weather within a 92.6km radius of OIAM

Map ICAO Location
OIAG 54.4km E (067°)
OIAA 90.7km W (257°)

24 Hour Weather History

Loading
-

24 Hour Weather Graphs

Loading
-

CheckWX.com is intended as a tool to help pilots better visualize weather data. It is not intended as a substitute for an official weather briefing obtained from a Flight Service Station. CheckWX.com does not meet the FAA requirements for an official pre-flight weather briefing. Therefore, it's important that pilots still call and obtain an official FSS pre-flight weather briefing.